Jacksonville, Florida
Current Conditions -  °F | °C
As of 10:56 AM on Friday 21 Nov 2014 (Local Time) from KJAX Reporting Station
Few Clouds Few Clouds  
Wind Chill: 19°   Ceiling: Unl
Heat Index: 19°   Visibility: 10mi
Dew Point:   Wind: 14mph
Humidity: 40%   Direction: 40°NE
Pressure: 30.37"   Gusts: NA
Location:  30.32°N, 81.66°W
Report Text: KJAX 211556Z 04012KT 10SM FEW250 19/05 A3037 RMK AO2 SLP284 T01890050 $
Loading
Personal Weather Stations






























Interactive Weather Map New forecast layout! Learn more

10-Day Weather Forecast

Advertisements
Track Severe Weather on mobile